Time;durP1;ratioP1;P1;durP2;ratioP2;P2;SDS_P1;SDS_P2;PMS_P1;PMS_P2;Temp;Humidity;BMP_temperature;BMP_pressure;BME280_temperature;BME280_humidity;BME280_pressure;Samples;Min_cycle;Max_cycle;Signal;HPM_P1;HPM_P2
2023/05/21 00:02:18;;;;;;;;;;;;;;;19.55;48.91;95295.03;10243218;28;1949;-65
2023/05/21 00:07:19;;;;;;;;;;;;;;;19.55;49.13;95284.50;10238314;28;1915;-66
2023/05/21 00:12:19;;;;;;;;;;;;;;;19.56;48.84;95283.47;10240100;28;1876;-66
2023/05/21 00:17:19;;;;;;;;;;;;;;;19.56;49.01;95280.84;10235044;28;1980;-66
2023/05/21 00:22:20;;;;;;;;;;;;;;;19.56;48.97;95280.84;10236107;28;1941;-66
2023/05/21 00:27:20;;;;;;;;;;;;;;;19.56;48.84;95267.69;10227429;28;2000;-66
2023/05/21 00:32:20;;;;;;;;;;;;;;;19.56;48.91;95267.69;10236759;28;2014;-66
2023/05/21 00:37:20;;;;;;;;;;;;;;;19.56;48.95;95270.31;10247793;28;2023;-66
2023/05/21 00:42:26;;;;;;;;;;;;;;;19.55;48.93;95263.47;10252515;28;4457;-66
2023/05/21 00:47:28;;;;;;;;;;;;;;;19.56;48.71;95265.06;10249252;28;1956;-66
2023/05/21 00:52:28;;;;;;;;;;;;;;;19.56;48.78;95260.56;10246249;28;1809;-66
2023/05/21 00:57:32;;;;;;;;;;;;;;;19.56;48.68;95251.91;10242840;28;1992;-66
2023/05/21 01:02:33;;;;;;;;;;;;;;;19.57;48.73;95256.09;10249614;28;2023;-66
2023/05/21 01:07:33;;;;;;;;;;;;;;;19.56;48.76;95244.78;10247403;28;2013;-66
2023/05/21 01:12:34;;;;;;;;;;;;;;;19.57;48.68;95250.84;10249806;28;1916;-67
2023/05/21 01:17:34;;;;;;;;;;;;;;;19.57;48.65;95245.59;10249282;28;1930;-67
2023/05/21 01:22:34;;;;;;;;;;;;;;;19.58;48.83;95257.69;10226328;28;1970;-66
2023/05/21 01:27:35;;;;;;;;;;;;;;;19.57;48.78;95250.84;10246280;28;2027;-66
2023/05/21 01:32:37;;;;;;;;;;;;;;;19.57;48.84;95253.47;10244075;28;1909;-66
2023/05/21 01:37:40;;;;;;;;;;;;;;;19.57;48.72;95242.97;10252581;28;2044;-66
2023/05/21 01:42:42;;;;;;;;;;;;;;;19.57;48.64;95242.97;10241167;28;4447;-66
2023/05/21 01:47:46;;;;;;;;;;;;;;;19.57;48.53;95245.59;10246154;28;1981;-66
2023/05/21 01:52:47;;;;;;;;;;;;;;;19.57;48.61;95240.31;10241622;28;1926;-67
2023/05/21 01:57:47;;;;;;;;;;;;;;;19.56;48.52;95239.53;10244155;28;1965;-67
2023/05/21 02:02:48;;;;;;;;;;;;;;;19.58;48.63;95236.66;10245849;28;1980;-67
2023/05/21 02:07:49;;;;;;;;;;;;;;;19.56;48.59;95239.53;10245897;28;2075;-66
2023/05/21 02:12:50;;;;;;;;;;;;;;;19.58;48.72;95236.66;10243514;28;2005;-65
2023/05/21 02:17:50;;;;;;;;;;;;;;;19.58;48.83;95241.91;10243285;28;1989;-65
2023/05/21 02:22:50;;;;;;;;;;;;;;;19.57;48.59;95235.84;10246409;28;1907;-66
2023/05/21 02:27:55;;;;;;;;;;;;;;;19.57;48.58;95229.81;10242792;28;1938;-65
2023/05/21 02:32:57;;;;;;;;;;;;;;;19.57;48.56;95224.56;10243523;28;1953;-65
2023/05/21 02:37:58;;;;;;;;;;;;;;;19.56;48.53;95229.03;10240777;28;1969;-66
2023/05/21 02:42:58;;;;;;;;;;;;;;;19.58;48.52;95231.38;10242546;28;4429;-67
2023/05/21 02:47:58;;;;;;;;;;;;;;;19.58;48.58;95241.91;10244190;28;1989;-65
2023/05/21 02:52:58;;;;;;;;;;;;;;;19.56;48.49;95231.66;10240721;28;1988;-65
2023/05/21 02:57:59;;;;;;;;;;;;;;;19.57;48.31;95240.31;10240173;28;2032;-66
2023/05/21 03:03:00;;;;;;;;;;;;;;;19.56;48.38;95234.28;10243336;28;1881;-65
2023/05/21 03:08:00;;;;;;;;;;;;;;;19.57;48.46;95235.84;10241402;28;1943;-67
2023/05/21 03:13:03;;;;;;;;;;;;;;;19.57;48.47;95229.81;10239229;28;1913;-67
2023/05/21 03:18:03;;;;;;;;;;;;;;;19.57;48.26;95229.81;10243028;28;2244;-67
2023/05/21 03:23:04;;;;;;;;;;;;;;;19.56;48.39;95221.13;10244371;28;1894;-67
2023/05/21 03:28:05;;;;;;;;;;;;;;;19.57;48.24;95219.28;10236035;28;2029;-67
2023/05/21 03:33:05;;;;;;;;;;;;;;;19.57;48.22;95216.66;10242970;28;1965;-67
2023/05/21 03:38:06;;;;;;;;;;;;;;;19.55;48.39;95219.59;10239620;28;1864;-66
2023/05/21 03:43:06;;;;;;;;;;;;;;;19.56;48.50;95218.50;10241611;28;1948;-67
2023/05/21 03:48:06;;;;;;;;;;;;;;;19.58;48.35;95215.63;10244919;28;1974;-67
2023/05/21 03:53:09;;;;;;;;;;;;;;;19.56;48.38;95210.63;10241533;28;1884;-67
2023/05/21 03:58:09;;;;;;;;;;;;;;;19.57;48.31;95220.09;10236989;28;2160;-67
2023/05/21 04:03:10;;;;;;;;;;;;;;;19.57;48.31;95224.56;10240980;28;1917;-67
2023/05/21 04:08:10;;;;;;;;;;;;;;;19.57;48.30;95227.19;10242844;28;1972;-66
2023/05/21 04:13:10;;;;;;;;;;;;;;;19.57;48.24;95227.19;10248170;28;1957;-68
2023/05/21 04:18:12;;;;;;;;;;;;;;;19.56;48.27;95226.41;10250787;28;2445;-67
2023/05/21 04:23:12;;;;;;;;;;;;;;;19.56;48.25;95225.63;10249342;28;1976;-67
2023/05/21 04:28:13;;;;;;;;;;;;;;;19.56;48.37;95226.41;10249770;28;1941;-67
2023/05/21 04:33:16;;;;;;;;;;;;;;;19.57;48.20;95235.06;10248186;28;1945;-67
2023/05/21 04:38:19;;;;;;;;;;;;;;;19.57;48.31;95240.31;10246959;28;1953;-67
2023/05/21 04:43:24;;;;;;;;;;;;;;;19.57;48.27;95238.50;10250757;28;4479;-67
2023/05/21 04:48:28;;;;;;;;;;;;;;;19.56;48.13;95231.66;10240050;28;1953;-67
2023/05/21 04:53:28;;;;;;;;;;;;;;;19.57;48.43;95248.22;10249073;28;1914;-67
2023/05/21 04:58:28;;;;;;;;;;;;;;;19.56;48.12;95249.28;10249565;28;1854;-67
2023/05/21 05:03:29;;;;;;;;;;;;;;;19.56;48.38;95250.06;10249692;28;1902;-67
2023/05/21 05:08:29;;;;;;;;;;;;;;;19.57;48.24;95242.97;10246318;28;1910;-67
2023/05/21 05:13:30;;;;;;;;;;;;;;;19.57;48.13;95237.69;10249851;28;2048;-67
2023/05/21 05:18:30;;;;;;;;;;;;;;;19.57;48.16;95240.31;10244387;28;1929;-67
2023/05/21 05:23:31;;;;;;;;;;;;;;;19.57;48.30;95240.31;10247532;28;1998;-67
2023/05/21 05:28:31;;;;;;;;;;;;;;;19.58;48.25;95241.91;10241999;28;1942;-67
2023/05/21 05:33:31;;;;;;;;;;;;;;;19.58;48.34;95249.78;10247648;28;1750;-67
2023/05/21 05:38:32;;;;;;;;;;;;;;;19.58;48.06;95252.44;10245989;28;1905;-67
2023/05/21 05:43:32;;;;;;;;;;;;;;;19.57;48.33;95238.50;10244619;28;4511;-67
2023/05/21 05:48:32;;;;;;;;;;;;;;;19.58;48.34;95245.28;10247740;28;1990;-67
2023/05/21 05:53:33;;;;;;;;;;;;;;;19.57;48.33;95243.75;10244480;28;1901;-67
2023/05/21 05:58:33;;;;;;;;;;;;;;;19.58;48.44;95249.78;10244228;28;1929;-67
2023/05/21 06:03:33;;;;;;;;;;;;;;;19.58;48.18;95242.66;10246136;28;1821;-67
2023/05/21 06:08:34;;;;;;;;;;;;;;;19.57;48.31;95251.63;10246170;28;2010;-67
2023/05/21 06:13:34;;;;;;;;;;;;;;;19.57;48.36;95249.00;10242235;28;2016;-67
2023/05/21 06:18:34;;;;;;;;;;;;;;;19.58;48.35;95253.19;10245633;28;1857;-67
2023/05/21 06:23:36;;;;;;;;;;;;;;;19.58;48.34;95247.94;10242749;28;1981;-67
2023/05/21 06:28:36;;;;;;;;;;;;;;;19.58;48.36;95252.44;10241407;28;2189;-67
2023/05/21 06:33:37;;;;;;;;;;;;;;;19.59;48.42;95253.97;10239593;28;1917;-66
2023/05/21 06:38:37;;;;;;;;;;;;;;;19.60;48.41;95250.31;10246525;28;1961;-67
2023/05/21 06:43:37;;;;;;;;;;;;;;;19.60;48.54;95258.19;10238467;28;4446;-67
2023/05/21 06:48:37;;;;;;;;;;;;;;;19.61;48.35;95254.47;10246488;28;1972;-68
2023/05/21 06:53:38;;;;;;;;;;;;;;;19.61;48.21;95257.09;10243063;28;2032;-65
2023/05/21 06:58:38;;;;;;;;;;;;;;;19.62;48.31;95253.44;10243704;28;1909;-66
2023/05/21 07:03:38;;;;;;;;;;;;;;;19.62;48.26;95261.31;10245209;28;2027;-66
2023/05/21 07:08:39;;;;;;;;;;;;;;;19.61;48.21;95265.00;10241081;28;2052;-66
2023/05/21 07:13:39;;;;;;;;;;;;;;;19.62;48.23;95259.44;10241609;28;1969;-66
2023/05/21 07:18:39;;;;;;;;;;;;;;;19.63;48.25;95261.03;10243801;28;1953;-66
2023/05/21 07:23:39;;;;;;;;;;;;;;;19.63;48.42;95257.63;10243881;28;1972;-67
2023/05/21 07:28:40;;;;;;;;;;;;;;;19.63;48.38;95254.97;10235822;28;3137;-65
2023/05/21 07:33:40;;;;;;;;;;;;;;;19.65;48.53;95266.00;10239814;28;2008;-67
2023/05/21 07:38:40;;;;;;;;;;;;;;;19.65;48.61;95263.38;10234303;28;2294;-68
2023/05/21 07:43:40;;;;;;;;;;;;;;;19.66;48.85;95259.69;10236844;28;4413;-65
2023/05/21 07:48:42;;;;;;;;;;;;;;;19.67;48.90;95261.25;10235541;28;1971;-65
2023/05/21 07:53:43;;;;;;;;;;;;;;;19.66;48.90;95265.72;10239114;28;1988;-65
2023/05/21 07:58:44;;;;;;;;;;;;;;;19.67;48.83;95266.50;10236704;28;2253;-65
2023/05/21 08:03:44;;;;;;;;;;;;;;;19.68;48.69;95265.47;10238510;28;1961;-64
2023/05/21 08:08:45;;;;;;;;;;;;;;;19.69;48.78;95272.28;10239568;28;1911;-64
2023/05/21 08:13:45;;;;;;;;;;;;;;;19.68;48.87;95273.34;10236098;28;1968;-64
2023/05/21 08:18:46;;;;;;;;;;;;;;;19.69;48.83;95275.69;10238211;28;1984;-65
2023/05/21 08:23:46;;;;;;;;;;;;;;;19.69;48.85;95280.16;10238621;28;1966;-65
2023/05/21 08:28:46;;;;;;;;;;;;;;;19.69;49.04;95278.31;10235254;28;2032;-64
2023/05/21 08:33:50;;;;;;;;;;;;;;;19.70;49.01;95292.25;10237892;28;1977;-65
2023/05/21 08:38:50;;;;;;;;;;;;;;;19.67;48.98;95285.72;10237805;29;2178;-65
2023/05/21 08:43:55;;;;;;;;;;;;;;;19.70;48.99;95289.63;10233796;28;1960;-65
2023/05/21 08:48:55;;;;;;;;;;;;;;;19.69;48.75;95291.47;10239997;28;1930;-65
2023/05/21 08:53:56;;;;;;;;;;;;;;;19.70;48.84;95287.00;10236151;28;1997;-65
2023/05/21 08:58:56;;;;;;;;;;;;;;;19.70;48.96;95284.38;10241413;28;2042;-65
2023/05/21 09:03:57;;;;;;;;;;;;;;;19.70;48.84;95287.00;10247935;28;1948;-65
2023/05/21 09:08:58;;;;;;;;;;;;;;;19.71;49.19;95291.19;10243176;28;2006;-65
2023/05/21 09:13:59;;;;;;;;;;;;;;;19.73;48.82;95286.44;10246597;28;1925;-65
2023/05/21 09:18:59;;;;;;;;;;;;;;;19.73;48.91;95287.22;10242319;28;1917;-65
2023/05/21 09:24:00;;;;;;;;;;;;;;;19.74;48.96;95288.78;10247184;28;1969;-68
2023/05/21 09:29:01;;;;;;;;;;;;;;;19.75;49.10;95289.56;10243216;28;1969;-65
2023/05/21 09:34:01;;;;;;;;;;;;;;;19.76;49.14;95280.63;10245296;28;1985;-66
2023/05/21 09:39:02;;;;;;;;;;;;;;;19.78;49.19;95281.13;10242855;28;1933;-65
2023/05/21 09:44:02;;;;;;;;;;;;;;;19.78;49.49;95286.38;10241512;28;4466;-64
2023/05/21 09:49:02;;;;;;;;;;;;;;;19.78;49.48;95275.88;10217049;28;1956;-65
2023/05/21 09:54:03;;;;;;;;;;;;;;;19.80;49.58;95281.63;10237054;28;2050;-64
2023/05/21 09:59:03;;;;;;;;;;;;;;;19.80;49.54;95279.00;10244199;28;1892;-64
2023/05/21 10:04:05;;;;;;;;;;;;;;;19.81;49.56;95272.66;10247667;28;1922;-64
2023/05/21 10:09:06;;;;;;;;;;;;;;;19.81;49.76;95270.03;10243660;28;1911;-64
2023/05/21 10:14:07;;;;;;;;;;;;;;;19.83;49.77;95260.03;10240560;28;2005;-64
2023/05/21 10:19:10;;;;;;;;;;;;;;;19.84;49.57;95272.13;10242394;28;1902;-64
2023/05/21 10:24:10;;;;;;;;;;;;;;;19.84;49.61;95269.50;10239183;28;2113;-64
2023/05/21 10:29:10;;;;;;;;;;;;;;;19.86;49.51;95267.38;10237625;28;1907;-64
2023/05/21 10:34:10;;;;;;;;;;;;;;;19.86;49.41;95262.91;10235991;28;2098;-64
2023/05/21 10:39:11;;;;;;;;;;;;;;;19.88;49.26;95265.25;10236777;28;1941;-64
2023/05/21 10:44:16;;;;;;;;;;;;;;;19.87;49.47;95261.03;10239916;28;4405;-64
2023/05/21 10:49:25;;;;;;;;;;;;;;;19.88;49.39;95259.97;10239556;28;2062;-64
2023/05/21 10:54:37;;;;;;;;;;;;;;;19.89;49.35;95261.53;10243233;28;2009;-64
2023/05/21 10:59:41;;;;;;;;;;;;;;;19.88;49.06;95262.59;10237275;28;1823;-64
2023/05/21 11:04:44;;;;;;;;;;;;;;;19.89;49.02;95264.16;10239191;28;1919;-64
2023/05/21 11:09:45;;;;;;;;;;;;;;;19.88;48.83;95254.72;10234743;28;1948;-63
2023/05/21 11:14:55;;;;;;;;;;;;;;;19.88;48.94;95257.34;10243871;28;1809;-64
2023/05/21 11:19:55;;;;;;;;;;;;;;;19.87;48.89;95261.81;10238986;28;1871;-64
2023/05/21 11:24:57;;;;;;;;;;;;;;;19.87;48.71;95247.88;10237425;28;1813;-64
2023/05/21 11:29:57;;;;;;;;;;;;;;;19.87;48.88;95251.28;10234619;28;1992;-64
2023/05/21 11:35:01;;;;;;;;;;;;;;;19.89;48.59;95256.28;10239296;29;1911;-64
2023/05/21 11:40:16;;;;;;;;;;;;;;;19.88;48.67;95242.34;10239459;28;4445;-64
2023/05/21 11:45:18;;;;;;;;;;;;;;;19.89;48.65;95245.75;10237502;28;2112;-64
2023/05/21 11:50:18;;;;;;;;;;;;;;;19.90;48.78;95247.31;10237410;28;1859;-64
2023/05/21 11:55:22;;;;;;;;;;;;;;;19.90;48.55;95242.84;10241726;28;1982;-64
2023/05/21 12:00:23;;;;;;;;;;;;;;;19.92;48.30;95237.31;10237908;28;1872;-64
2023/05/21 12:05:23;;;;;;;;;;;;;;;19.92;48.47;95245.19;10241731;28;2029;-65
2023/05/21 12:10:23;;;;;;;;;;;;;;;19.92;48.68;95232.84;10240015;28;1836;-65
2023/05/21 12:15:24;;;;;;;;;;;;;;;19.92;48.80;95237.31;10240707;28;1864;-65
2023/05/21 12:20:26;;;;;;;;;;;;;;;19.92;48.70;95230.22;10234708;28;1852;-65
2023/05/21 12:25:26;;;;;;;;;;;;;;;19.94;48.33;95232.53;10236858;28;1982;-65
2023/05/21 12:30:27;;;;;;;;;;;;;;;19.93;48.55;95223.88;10240926;28;1923;-65
2023/05/21 12:35:27;;;;;;;;;;;;;;;19.95;48.44;95220.94;10242405;28;1831;-65
2023/05/21 12:40:36;;;;;;;;;;;;;;;19.95;48.49;95224.38;10238082;28;4381;-65
2023/05/21 12:45:38;;;;;;;;;;;;;;;19.96;48.30;95222.53;10236346;28;1906;-65
2023/05/21 12:50:39;;;;;;;;;;;;;;;20.00;48.12;95218.25;10238580;28;1875;-64
2023/05/21 12:55:39;;;;;;;;;;;;;;;19.99;45.98;95225.38;10243525;28;1789;-64
2023/05/21 13:00:40;;;;;;;;;;;;;;;20.07;43.74;95218.72;10246483;28;1895;-64
2023/05/21 13:05:41;;;;;;;;;;;;;;;20.01;43.34;95222.47;10244120;28;1977;-64
2023/05/21 13:10:41;;;;;;;;;;;;;;;20.04;43.25;95219.25;10242604;28;1891;-65
2023/05/21 13:15:41;;;;;;;;;;;;;;;20.07;43.52;95216.09;10246873;28;1838;-68
2023/05/21 13:20:41;;;;;;;;;;;;;;;20.04;43.12;95214.78;10244358;28;1880;-69
2023/05/21 13:25:42;;;;;;;;;;;;;;;20.04;42.70;95212.16;10239506;29;2004;-66
2023/05/21 13:30:42;;;;;;;;;;;;;;;20.05;42.36;95210.31;10243754;28;1893;-67
2023/05/21 13:35:44;;;;;;;;;;;;;;;20.08;42.23;95199.22;10241468;28;2064;-64
2023/05/21 13:40:44;;;;;;;;;;;;;;;20.09;41.62;95200.78;10238461;28;4220;-66
2023/05/21 13:45:46;;;;;;;;;;;;;;;20.12;41.01;95200.22;10240360;28;1983;-66
2023/05/21 13:50:46;;;;;;;;;;;;;;;20.07;41.42;95184.50;10244448;28;1817;-66
2023/05/21 13:55:46;;;;;;;;;;;;;;;20.08;41.62;95207.09;10240996;28;1965;-65
2023/05/21 14:00:47;;;;;;;;;;;;;;;20.08;41.50;95210.53;10242021;28;1887;-65
2023/05/21 14:05:52;;;;;;;;;;;;;;;20.09;41.88;95204.19;10241583;28;1993;-67
2023/05/21 14:10:52;;;;;;;;;;;;;;;20.09;41.63;95201.56;10242084;28;1993;-67
2023/05/21 14:15:52;;;;;;;;;;;;;;;20.12;42.35;95197.59;10241941;28;2009;-67
2023/05/21 14:20:53;;;;;;;;;;;;;;;20.14;42.46;95206.75;10244728;28;1844;-66
2023/05/21 14:25:53;;;;;;;;;;;;;;;20.15;42.63;95195.16;10240173;28;1911;-67
2023/05/21 14:30:53;;;;;;;;;;;;;;;20.16;42.43;95196.75;10246470;28;1827;-68
2023/05/21 14:35:54;;;;;;;;;;;;;;;20.19;43.10;95200.66;10240525;28;1979;-67
2023/05/21 14:40:54;;;;;;;;;;;;;;;20.21;42.87;95201.19;10246615;28;4509;-68
2023/05/21 14:45:54;;;;;;;;;;;;;;;20.19;43.37;95201.47;10240049;28;2034;-68
2023/05/21 14:50:54;;;;;;;;;;;;;;;20.18;43.74;95189.34;10242174;28;1816;-67
2023/05/21 14:55:55;;;;;;;;;;;;;;;20.19;44.00;95190.94;10241347;28;1834;-68
2023/05/21 15:00:55;;;;;;;;;;;;;;;20.18;44.04;95193.81;10242381;28;1826;-69
2023/05/21 15:05:57;;;;;;;;;;;;;;;20.18;44.33;95196.44;10236079;28;1982;-69
2023/05/21 15:10:57;;;;;;;;;;;;;;;20.19;44.42;95195.41;10242903;28;1840;-67
2023/05/21 15:15:57;;;;;;;;;;;;;;;20.19;44.62;95190.94;10239670;28;1975;-67
2023/05/21 15:20:58;;;;;;;;;;;;;;;20.17;44.70;95193.03;10240653;28;1907;-68
2023/05/21 15:25:58;;;;;;;;;;;;;;;20.19;44.66;95195.41;10241375;28;1981;-68
2023/05/21 15:30:58;;;;;;;;;;;;;;;20.19;44.91;95190.13;10238839;28;2135;-68
2023/05/21 15:35:58;;;;;;;;;;;;;;;20.20;44.90;95196.97;10238802;28;1801;-68
2023/05/21 15:40:59;;;;;;;;;;;;;;;20.18;45.20;95191.19;10238846;28;4389;-67
2023/05/21 15:45:59;;;;;;;;;;;;;;;20.20;45.06;95191.72;10240043;28;1906;-68
2023/05/21 15:51:00;;;;;;;;;;;;;;;20.21;45.08;95190.66;10239085;28;1916;-67
2023/05/21 15:56:02;;;;;;;;;;;;;;;20.20;45.21;95181.97;10237059;28;1915;-68
2023/05/21 16:01:02;;;;;;;;;;;;;;;20.17;45.18;95171.97;10238695;28;1848;-68
2023/05/21 16:06:03;;;;;;;;;;;;;;;20.19;45.42;95167.28;10237937;28;1950;-68
2023/05/21 16:11:03;;;;;;;;;;;;;;;20.22;45.36;95176.41;10235397;28;2032;-68
2023/05/21 16:16:03;;;;;;;;;;;;;;;20.21;45.57;95173.03;10232773;28;1875;-69
2023/05/21 16:21:04;;;;;;;;;;;;;;;20.22;45.56;95173.78;10243004;28;1855;-72
2023/05/21 16:26:04;;;;;;;;;;;;;;;20.22;45.58;95171.94;10234617;28;2075;-68
2023/05/21 16:31:04;;;;;;;;;;;;;;;20.21;45.42;95173.03;10237890;28;1907;-68
2023/05/21 16:36:05;;;;;;;;;;;;;;;20.24;45.65;95166.38;10240253;28;1851;-67
2023/05/21 16:41:05;;;;;;;;;;;;;;;20.23;45.53;95170.09;10236046;28;4338;-67
2023/05/21 16:46:05;;;;;;;;;;;;;;;20.23;45.68;95168.25;10236524;28;2021;-68
2023/05/21 16:51:06;;;;;;;;;;;;;;;20.23;45.85;95167.47;10237485;28;1900;-66
2023/05/21 16:56:06;;;;;;;;;;;;;;;20.23;45.93;95167.47;10236983;28;1848;-69
2023/05/21 17:01:06;;;;;;;;;;;;;;;20.24;45.82;95174.28;10240834;28;1858;-67
2023/05/21 17:06:06;;;;;;;;;;;;;;;20.23;45.85;95170.09;10237308;28;1966;-68
2023/05/21 17:11:07;;;;;;;;;;;;;;;20.24;46.21;95169.81;10242005;28;1886;-68
2023/05/21 17:16:07;;;;;;;;;;;;;;;20.23;46.19;95160.38;10240941;28;1944;-68
2023/05/21 17:21:08;;;;;;;;;;;;;;;20.24;46.23;95166.38;10244552;28;2087;-67
2023/05/21 17:26:08;;;;;;;;;;;;;;;20.24;46.04;95166.38;10244757;28;1923;-67
2023/05/21 17:31:08;;;;;;;;;;;;;;;20.24;46.06;95172.44;10242800;28;1879;-68
2023/05/21 17:36:09;;;;;;;;;;;;;;;20.24;46.16;95171.66;10241182;28;1895;-68
2023/05/21 17:41:09;;;;;;;;;;;;;;;20.24;46.34;95182.19;10241772;28;4378;-67
2023/05/21 17:46:09;;;;;;;;;;;;;;;20.24;46.21;95182.19;10244975;28;1906;-67
2023/05/21 17:51:10;;;;;;;;;;;;;;;20.23;46.23;95186.69;10234607;28;1890;-66
2023/05/21 17:56:10;;;;;;;;;;;;;;;20.25;46.72;95189.81;10234175;28;1993;-67
2023/05/21 18:01:11;;;;;;;;;;;;;;;20.25;46.92;95184.56;10238941;28;1883;-66
2023/05/21 18:06:11;;;;;;;;;;;;;;;20.34;47.03;95197.81;10241506;28;1923;-64
2023/05/21 18:11:11;;;;;;;;;;;;;;;20.32;47.30;95201.84;10247106;28;1552;-67
2023/05/21 18:16:11;;;;;;;;;;;;;;;20.35;47.75;95193.34;10247929;28;1827;-68
2023/05/21 18:21:12;;;;;;;;;;;;;;;20.35;47.95;95199.41;10245571;28;2170;-67
2023/05/21 18:26:12;;;;;;;;;;;;;;;20.36;48.29;95200.19;10245532;28;1970;-71
2023/05/21 18:31:12;;;;;;;;;;;;;;;20.38;48.14;95204.09;10242393;28;1670;-68
2023/05/21 18:36:13;;;;;;;;;;;;;;;20.40;48.25;95194.09;10247837;28;1449;-72
2023/05/21 18:41:13;;;;;;;;;;;;;;;20.40;48.33;95207.25;10245500;28;4451;-73
2023/05/21 18:46:13;;;;;;;;;;;;;;;20.42;48.38;95205.09;10240593;28;1938;-74
2023/05/21 18:51:13;;;;;;;;;;;;;;;20.43;48.52;95196.13;10239781;28;1480;-73
2023/05/21 18:56:14;;;;;;;;;;;;;;;20.47;48.58;95212.13;10238141;28;1492;-78
2023/05/21 19:01:14;;;;;;;;;;;;;;;20.49;48.90;95213.41;10237455;28;1569;-79
2023/05/21 19:06:15;;;;;;;;;;;;;;;20.51;49.17;95213.91;10239368;28;1906;-74
2023/05/21 19:11:16;;;;;;;;;;;;;;;20.53;49.05;95222.31;10241431;28;1428;-72
2023/05/21 19:16:16;;;;;;;;;;;;;;;20.53;49.53;95227.56;10238372;28;2011;-73
2023/05/21 19:21:16;;;;;;;;;;;;;;;20.58;49.63;95224.88;10242130;28;1426;-71
2023/05/21 19:26:17;;;;;;;;;;;;;;;20.59;49.74;95238.81;10237297;28;1914;-71
2023/05/21 19:31:20;;;;;;;;;;;;;;;20.59;49.58;95234.34;10237853;28;1512;-71
2023/05/21 19:36:20;;;;;;;;;;;;;;;20.59;49.83;95238.81;10242979;28;1481;-77
2023/05/21 19:41:21;;;;;;;;;;;;;;;20.59;49.91;95231.69;10242749;28;4434;-69
2023/05/21 19:46:21;;;;;;;;;;;;;;;20.60;49.82;95240.38;10241770;28;1986;-73
2023/05/21 19:51:21;;;;;;;;;;;;;;;20.63;49.79;95242.47;10241095;28;1824;-70
2023/05/21 19:56:22;;;;;;;;;;;;;;;20.62;49.74;95246.16;10231789;28;1853;-68
2023/05/21 20:01:22;;;;;;;;;;;;;;;20.65;49.35;95249.00;10235549;28;1847;-74
2023/05/21 20:06:22;;;;;;;;;;;;;;;20.62;49.61;95246.94;10235825;28;2017;-70
2023/05/21 20:11:23;;;;;;;;;;;;;;;20.59;49.40;95242.22;10238669;28;2057;-64
2023/05/21 20:16:23;;;;;;;;;;;;;;;20.59;49.39;95242.22;10234979;28;1989;-66
2023/05/21 20:21:23;;;;;;;;;;;;;;;20.58;49.42;95245.16;10241058;28;1887;-67
2023/05/21 20:26:24;;;;;;;;;;;;;;;20.56;49.51;95245.44;10237597;28;1957;-67
2023/05/21 20:31:26;;;;;;;;;;;;;;;20.54;49.47;95244.94;10235797;28;1981;-67
2023/05/21 20:36:26;;;;;;;;;;;;;;;20.55;49.50;95241.25;10235660;28;1873;-72
2023/05/21 20:41:34;;;;;;;;;;;;;;;20.56;50.73;95234.91;10238465;28;4412;-72
2023/05/21 20:46:37;;;;;;;;;;;;;;;20.57;51.33;95231.19;10233715;28;1976;-72
2023/05/21 20:51:37;;;;;;;;;;;;;;;20.59;51.58;95233.53;10237391;28;2095;-71
2023/05/21 20:56:43;;;;;;;;;;;;;;;20.58;51.54;95235.41;10240785;28;1994;-71
2023/05/21 21:01:44;;;;;;;;;;;;;;;20.59;51.83;95241.44;10224717;28;1863;-72
2023/05/21 21:06:45;;;;;;;;;;;;;;;20.59;51.67;95246.72;10241005;28;2092;-74
2023/05/21 21:11:45;;;;;;;;;;;;;;;20.58;51.33;95245.94;10242199;28;1812;-72
2023/05/21 21:16:45;;;;;;;;;;;;;;;20.58;51.43;95253.06;10237930;28;1892;-72
2023/05/21 21:21:46;;;;;;;;;;;;;;;20.57;51.38;95248.84;10240800;28;1804;-72
2023/05/21 21:26:46;;;;;;;;;;;;;;;20.57;51.41;95248.84;10233375;28;1994;-71
2023/05/21 21:31:47;;;;;;;;;;;;;;;20.57;51.12;95254.09;10242628;28;1903;-71
2023/05/21 21:36:48;;;;;;;;;;;;;;;20.56;51.33;95255.97;10239211;28;1891;-71
2023/05/21 21:41:49;;;;;;;;;;;;;;;20.55;51.23;95257.03;10245540;28;4406;-71
2023/05/21 21:46:49;;;;;;;;;;;;;;;20.53;51.11;95253.13;10250250;28;1915;-70
2023/05/21 21:51:50;;;;;;;;;;;;;;;20.54;50.98;95266.00;10247200;28;1685;-71
2023/05/21 21:56:50;;;;;;;;;;;;;;;20.53;50.91;95261.81;10239386;28;2086;-70
2023/05/21 22:01:50;;;;;;;;;;;;;;;20.53;51.01;95259.16;10244445;28;1941;-70
2023/05/21 22:06:52;;;;;;;;;;;;;;;20.52;50.87;95251.56;10247130;28;2150;-71
2023/05/21 22:11:52;;;;;;;;;;;;;;;20.52;50.71;95254.97;10242380;28;1824;-70
2023/05/21 22:16:53;;;;;;;;;;;;;;;20.51;50.83;95260.50;10240289;28;1883;-70
2023/05/21 22:21:54;;;;;;;;;;;;;;;20.52;50.45;95256.81;10240692;28;1824;-71
2023/05/21 22:26:54;;;;;;;;;;;;;;;20.51;50.72;95261.31;10239580;28;2014;-70
2023/05/21 22:31:54;;;;;;;;;;;;;;;20.52;50.37;95264.72;10241215;28;1847;-70
2023/05/21 22:36:55;;;;;;;;;;;;;;;20.50;50.35;95262.38;10238912;28;1840;-70
2023/05/21 22:41:55;;;;;;;;;;;;;;;20.49;50.42;95260.81;10242574;28;4465;-70
2023/05/21 22:46:58;;;;;;;;;;;;;;;20.49;50.29;95262.66;10241440;28;1910;-71
2023/05/21 22:52:03;;;;;;;;;;;;;;;20.50;50.36;95264.22;10242424;28;1951;-71
2023/05/21 22:57:04;;;;;;;;;;;;;;;20.48;50.08;95256.63;10217006;28;1976;-70
2023/05/21 23:02:04;;;;;;;;;;;;;;;20.48;50.22;95251.34;10241785;28;2184;-70
2023/05/21 23:07:05;;;;;;;;;;;;;;;20.48;50.13;95246.09;10240363;28;1982;-70
2023/05/21 23:12:05;;;;;;;;;;;;;;;20.48;49.92;95255.84;10244261;28;1859;-71
2023/05/21 23:17:06;;;;;;;;;;;;;;;20.48;49.89;95255.84;10240747;28;1845;-70
2023/05/21 23:22:06;;;;;;;;;;;;;;;20.47;50.01;95255.03;10241911;28;1923;-70
2023/05/21 23:27:06;;;;;;;;;;;;;;;20.47;49.96;95255.03;10237425;28;1927;-70
2023/05/21 23:32:07;;;;;;;;;;;;;;;20.47;49.93;95244.50;10240477;28;1891;-70
2023/05/21 23:37:07;;;;;;;;;;;;;;;20.48;50.06;95255.84;10237876;28;1836;-71
2023/05/21 23:42:07;;;;;;;;;;;;;;;20.47;50.07;95255.03;10242587;28;4527;-71
2023/05/21 23:47:07;;;;;;;;;;;;;;;20.47;49.80;95247.16;10241292;28;1996;-71
2023/05/21 23:52:08;;;;;;;;;;;;;;;20.47;49.92;95249.78;10240343;28;1984;-71
2023/05/21 23:57:08;;;;;;;;;;;;;;;20.47;49.86;95243.72;10237746;28;2052;-69
